Terminal Aerodrome Forecast
Issued by NWS

Home | Current Version | Previous Version | Graphics & Text | Print | Product List | Glossary On
Versions: 1 2 3 4 5 6 7 8 9 10 11 12 13 14
000
FTUS43 KABR 142300
TAFMBG
TAF
KMBG 142330Z 1500/1524 VRB06KT P6SM BKN070 OVC150
     FM151200 VRB06KT P6SM BKN250=

USA.gov is the U.S. government's official web portal to all federal, state and local government web resources and services.